Time;durP1;ratioP1;P1;durP2;ratioP2;P2;SDS_P1;SDS_P2;PMS_P1;PMS_P2;Temp;Humidity;BMP_temperature;BMP_pressure;BME280_temperature;BME280_humidity;BME280_pressure;Samples;Min_cycle;Max_cycle;Signal;HPM_P1;HPM_P2
2020/12/05 00:02:15;;;;;;;1.63;0.50;;;;;;;4.95;71.86;96939.94;4945054;28;20153;-72
2020/12/05 00:04:40;;;;;;;1.08;0.30;;;;;;;4.99;71.21;96940.88;4929317;28;20046;-69
2020/12/05 00:07:06;;;;;;;4.13;0.30;;;;;;;5.06;71.33;96940.41;4953154;28;20389;-70
2020/12/05 00:09:31;;;;;;;1.55;0.55;;;;;;;5.10;71.79;96946.81;4920646;28;20036;-71
2020/12/05 00:11:57;;;;;;;1.63;0.30;;;;;;;5.18;71.58;96939.81;4948963;28;20047;-71
2020/12/05 00:14:22;;;;;;;2.03;0.85;;;;;;;5.25;71.39;96948.25;4938804;28;20024;-71
2020/12/05 00:16:51;;;;;;;1.33;0.45;;;;;;;5.30;71.65;96950.84;4934416;28;20067;-74
2020/12/05 00:19:17;;;;;;;1.40;0.50;;;;;;;5.36;71.23;96960.41;4926988;28;20448;-72
2020/12/05 00:21:43;;;;;;;0.30;0.20;;;;;;;5.42;71.29;96964.53;4957776;28;20035;-72
2020/12/05 00:24:08;;;;;;;1.13;0.30;;;;;;;5.51;71.27;96966.47;4947386;28;20388;-73
2020/12/05 00:26:34;;;;;;;4.85;0.50;;;;;;;5.55;71.40;96962.03;4932452;28;20039;-74
2020/12/05 00:28:59;;;;;;;0.20;0.20;;;;;;;5.60;71.15;96964.56;4997228;28;20034;-74
2020/12/05 00:31:27;;;;;;;6.38;0.28;;;;;;;5.60;70.99;96953.72;5018417;28;20060;-74
2020/12/05 00:33:52;;;;;;;2.10;0.30;;;;;;;5.60;71.26;96948.31;4920140;28;20043;-75
2020/12/05 00:36:19;;;;;;;3.08;1.25;;;;;;;5.56;71.28;96948.16;4958464;28;20032;-75
2020/12/05 00:38:45;;;;;;;3.20;0.20;;;;;;;5.55;71.94;96941.13;4958810;28;20035;-73
2020/12/05 00:41:16;;;;;;;6.47;0.70;;;;;;;5.54;72.51;96955.00;4936928;28;20518;-73
2020/12/05 00:43:42;;;;;;;0.55;0.30;;;;;;;5.53;73.28;96956.91;4933662;28;20036;-73
2020/12/05 00:46:07;;;;;;;7.05;0.70;;;;;;;5.47;74.36;96949.25;4946514;28;20112;-72
2020/12/05 00:48:33;;;;;;;1.42;0.20;;;;;;;5.38;75.45;96944.63;4960220;28;20428;-73
2020/12/05 00:50:58;;;;;;;1.90;0.20;;;;;;;5.30;77.10;96950.84;4939573;28;20034;-72
2020/12/05 00:53:24;;;;;;;2.53;0.65;;;;;;;5.16;79.02;96942.81;4937447;28;20028;-72
2020/12/05 00:55:50;;;;;;;1.48;0.80;;;;;;;5.10;80.31;96946.03;4944071;28;20031;-71
2020/12/05 00:58:15;;;;;;;2.72;0.77;;;;;;;5.04;80.75;96946.16;4960368;28;20040;-70
2020/12/05 01:00:41;;;;;;;0.65;0.45;;;;;;;5.05;80.58;96949.66;4948777;28;20086;-70
2020/12/05 01:03:07;;;;;;;1.17;0.60;;;;;;;5.05;80.94;96949.66;4940302;28;20458;-71
2020/12/05 01:05:33;;;;;;;1.55;0.38;;;;;;;5.06;80.60;96941.22;4951240;28;20045;-72
2020/12/05 01:07:59;;;;;;;1.20;1.08;;;;;;;5.06;81.27;96935.78;4954717;28;20049;-72
2020/12/05 01:10:25;;;;;;;1.75;0.98;;;;;;;5.05;80.88;96939.63;4955359;28;20038;-70
2020/12/05 01:12:50;;;;;;;2.25;0.93;;;;;;;5.09;81.20;96942.50;4949439;28;20063;-71
2020/12/05 01:15:16;;;;;;;0.63;0.63;;;;;;;5.11;80.74;96947.59;4936577;28;20088;-71
2020/12/05 01:17:41;;;;;;;2.60;0.82;;;;;;;5.07;81.56;96942.03;4957646;28;20046;-70
2020/12/05 01:20:07;;;;;;;1.10;0.90;;;;;;;5.09;81.59;96939.78;4955636;28;20062;-71
2020/12/05 01:22:32;;;;;;;1.50;1.10;;;;;;;5.11;81.52;96934.88;4945851;28;20070;-71
2020/12/05 01:24:58;;;;;;;0.95;0.65;;;;;;;5.11;80.68;96934.06;4960391;28;20023;-72
2020/12/05 01:27:24;;;;;;;1.00;0.93;;;;;;;5.11;80.78;96932.16;4946128;28;20032;-72
2020/12/05 01:29:50;;;;;;;4.28;2.10;;;;;;;5.11;80.50;96925.94;4985357;28;20029;-72
2020/12/05 01:32:15;;;;;;;2.30;1.02;;;;;;;5.11;79.83;96928.63;4975115;28;20602;-72
2020/12/05 01:34:41;;;;;;;1.98;0.70;;;;;;;5.13;79.54;96921.00;4945174;28;20031;-72
2020/12/05 01:37:07;;;;;;;1.77;0.98;;;;;;;5.16;79.97;96923.88;4946997;28;20561;-72
2020/12/05 01:39:33;;;;;;;1.27;0.45;;;;;;;5.21;79.63;96928.34;4951875;28;20085;-71
2020/12/05 01:41:58;;;;;;;1.27;0.45;;;;;;;5.20;79.54;96922.13;4950817;28;20378;-71
2020/12/05 01:44:24;;;;;;;2.28;0.93;;;;;;;5.22;79.65;96910.97;4957307;28;20023;-72
2020/12/05 01:46:52;;;;;;;1.75;0.73;;;;;;;5.26;79.00;96933.63;4949460;28;20050;-70
2020/12/05 01:49:20;;;;;;;0.60;0.60;;;;;;;5.28;78.92;96933.28;4953289;28;20081;-71
2020/12/05 01:51:46;;;;;;;0.70;0.38;;;;;;;5.27;78.82;96918.97;4955700;28;20081;-72
2020/12/05 01:54:15;;;;;;;0.52;0.22;;;;;;;5.28;79.32;96923.25;4942331;28;20023;-73
2020/12/05 01:56:44;;;;;;;0.65;0.45;;;;;;;5.24;79.34;96925.00;4937588;28;20439;-69
2020/12/05 01:59:11;;;;;;;2.03;0.22;;;;;;;5.24;79.36;96919.56;4955815;28;20031;-71
2020/12/05 02:01:39;;;;;;;2.88;0.60;;;;;;;5.25;79.13;96929.31;4946722;28;20538;-71
2020/12/05 02:04:04;;;;;;;4.15;0.75;;;;;;;5.24;78.62;96925.00;4943513;28;20027;-69
2020/12/05 02:06:57;;;;;;;3.65;0.65;;;;;;;5.29;78.84;96930.28;4973497;28;20033;-71
2020/12/05 02:09:30;;;;;;;7.05;0.65;;;;;;;5.32;78.89;96932.34;4942848;28;20093;-70
2020/12/05 02:12:33;;;;;;;3.63;0.60;;;;;;;5.34;78.59;96940.94;4964499;28;21239;-70
2020/12/05 02:15:10;;;;;;;1.02;0.30;;;;;;;5.31;78.77;96947.00;4938952;28;20100;-69
2020/12/05 02:17:39;;;;;;;2.08;0.30;;;;;;;5.28;78.63;96942.22;4948352;28;20361;-69
2020/12/05 02:20:07;;;;;;;0.82;0.43;;;;;;;5.27;79.17;96939.81;4938160;28;20046;-70
2020/12/05 02:22:40;;;;;;;5.60;0.73;;;;;;;5.29;79.46;96953.88;4974170;28;20511;-69
2020/12/05 02:25:06;;;;;;;0.93;0.30;;;;;;;5.25;79.91;96957.19;4939094;28;20560;-70
2020/12/05 02:27:33;;;;;;;5.05;0.30;;;;;;;5.22;80.22;96948.91;4943263;28;20031;-70
2020/12/05 02:29:59;;;;;;;1.38;0.50;;;;;;;5.15;81.17;96954.78;4921436;28;20492;-69
2020/12/05 02:32:24;;;;;;;3.33;0.50;;;;;;;5.15;81.80;96943.94;4947945;28;20043;-69
2020/12/05 02:34:50;;;;;;;1.52;0.50;;;;;;;5.15;82.26;96949.34;4916169;28;20114;-69
2020/12/05 02:37:19;;;;;;;1.85;0.30;;;;;;;5.11;82.74;96947.59;4953333;28;20032;-70
2020/12/05 02:39:45;;;;;;;1.35;0.20;;;;;;;5.13;83.15;96950.81;4937512;28;20542;-70
2020/12/05 02:42:13;;;;;;;0.25;0.10;;;;;;;5.13;83.11;96956.22;4933163;28;20048;-71
2020/12/05 02:44:52;;;;;;;3.35;0.15;;;;;;;5.10;83.08;96954.94;4944535;28;20031;-71
2020/12/05 02:47:19;;;;;;;0.98;0.30;;;;;;;5.11;82.87;96958.44;4946730;28;20076;-72
2020/12/05 02:49:45;;;;;;;1.98;0.20;;;;;;;5.06;82.80;96960.16;4954253;28;20039;-72
2020/12/05 02:52:11;;;;;;;3.50;0.17;;;;;;;5.02;83.12;96947.56;4955292;28;20024;-71
2020/12/05 02:54:36;;;;;;;0.85;0.00;;;;;;;5.04;82.58;96956.97;4966884;28;20164;-72
2020/12/05 02:57:03;;;;;;;0.75;0.10;;;;;;;5.01;82.70;96960.31;4946989;28;20301;-72
2020/12/05 02:59:30;;;;;;;0.10;0.10;;;;;;;4.99;82.92;96965.25;4950621;28;20027;-73
2020/12/05 03:01:56;;;;;;;0.03;0.00;;;;;;;4.95;82.56;96967.00;4950398;28;20036;-71
2020/12/05 03:04:22;;;;;;;4.70;0.30;;;;;;;4.98;82.77;96970.97;4950867;28;20030;-72
2020/12/05 03:06:47;;;;;;;4.47;0.05;;;;;;;4.99;82.56;96959.81;4978577;28;20036;-71
2020/12/05 03:09:13;;;;;;;0.10;0.00;;;;;;;5.01;82.35;96954.91;4912489;28;20068;-72
2020/12/05 03:11:39;;;;;;;1.85;0.10;;;;;;;5.03;82.47;96958.09;4948182;28;20087;-71
2020/12/05 03:14:04;;;;;;;1.58;0.10;;;;;;;5.02;82.15;96961.94;4954173;28;20476;-72
2020/12/05 03:16:30;;;;;;;0.38;0.08;;;;;;;5.02;82.66;96961.94;4955439;28;20027;-71
2020/12/05 03:18:55;;;;;;;0.80;0.10;;;;;;;5.04;82.63;96964.31;4931860;28;20076;-72
2020/12/05 03:21:21;;;;;;;1.13;0.08;;;;;;;5.03;82.69;96952.66;4949598;28;20041;-71
2020/12/05 03:23:46;;;;;;;0.00;0.00;;;;;;;5.00;82.72;96964.13;4927421;28;20063;-72
2020/12/05 03:26:13;;;;;;;0.00;0.00;;;;;;;4.94;83.69;96967.31;4943441;28;20441;-73
2020/12/05 03:28:39;;;;;;;6.80;0.17;;;;;;;4.88;84.04;96966.66;4945067;28;20031;-72
2020/12/05 03:31:05;;;;;;;0.08;0.00;;;;;;;4.89;84.11;96973.66;4970609;28;20027;-72
2020/12/05 03:33:32;;;;;;;0.10;0.10;;;;;;;4.91;84.02;96976.84;4924604;28;20035;-72
2020/12/05 03:35:57;;;;;;;0.00;0.00;;;;;;;4.91;83.97;96976.84;4972036;28;20025;-72
2020/12/05 03:38:23;;;;;;;0.10;0.00;;;;;;;4.92;84.03;96978.47;4931217;28;20047;-72
2020/12/05 03:40:48;;;;;;;0.00;0.00;;;;;;;4.95;84.16;96977.84;4941359;28;20034;-73
2020/12/05 03:43:13;;;;;;;0.00;0.00;;;;;;;4.98;84.14;96977.19;4962120;28;20039;-72
2020/12/05 03:45:39;;;;;;;0.43;0.00;;;;;;;5.00;83.88;96980.38;4936355;28;20053;-72
2020/12/05 03:48:04;;;;;;;3.60;0.10;;;;;;;4.99;84.26;96984.19;5030240;28;20037;-72
2020/12/05 03:50:30;;;;;;;0.00;0.00;;;;;;;4.97;84.37;96972.09;4999419;28;20031;-72
2020/12/05 03:52:55;;;;;;;4.20;0.05;;;;;;;4.96;84.39;96984.03;5000160;28;20030;-72
2020/12/05 03:55:21;;;;;;;0.88;0.00;;;;;;;4.90;84.75;96975.25;5019508;28;20042;-71
2020/12/05 03:57:46;;;;;;;0.00;0.00;;;;;;;4.85;84.63;96967.28;4973626;28;20032;-72
2020/12/05 04:00:15;;;;;;;1.10;0.30;;;;;;;4.85;85.07;96978.91;5012377;28;20448;-72
2020/12/05 04:02:43;;;;;;;7.80;0.20;;;;;;;4.83;85.14;96972.19;4983150;28;20031;-73
2020/12/05 04:05:08;;;;;;;0.70;0.17;;;;;;;4.83;85.02;96983.03;5028274;28;20076;-72
2020/12/05 04:07:33;;;;;;;0.10;0.00;;;;;;;4.78;84.22;96977.75;5025451;28;20026;-73
2020/12/05 04:09:59;;;;;;;0.15;0.10;;;;;;;4.84;84.81;96996.25;4994275;28;20558;-71
2020/12/05 04:12:24;;;;;;;0.20;0.10;;;;;;;4.84;84.72;97001.66;5027396;28;20041;-71
2020/12/05 04:14:50;;;;;;;0.88;0.00;;;;;;;4.82;84.53;97001.19;5009214;28;20021;-71
2020/12/05 04:17:15;;;;;;;0.08;0.03;;;;;;;4.87;85.41;97003.75;4991487;28;20033;-70
2020/12/05 04:19:41;;;;;;;0.70;0.15;;;;;;;4.93;84.79;96999.00;5031545;28;20484;-69
2020/12/05 04:22:06;;;;;;;0.30;0.05;;;;;;;4.97;85.20;97001.88;5020754;28;20030;-71
2020/12/05 04:24:31;;;;;;;0.17;0.00;;;;;;;5.01;84.91;97003.66;4981896;28;20037;-70
2020/12/05 04:26:57;;;;;;;0.22;0.10;;;;;;;5.06;84.97;97003.50;5009304;28;20018;-70
2020/12/05 04:29:22;;;;;;;0.00;0.00;;;;;;;5.14;84.96;97003.84;4996396;28;20029;-71
2020/12/05 04:31:48;;;;;;;1.75;0.17;;;;;;;5.20;84.94;97006.09;5002390;28;20029;-75
2020/12/05 04:34:13;;;;;;;0.73;0.20;;;;;;;5.27;84.81;97013.78;5008479;28;20040;-71
2020/12/05 04:36:39;;;;;;;0.85;0.00;;;;;;;5.30;84.93;97020.47;5013309;28;20328;-72
2020/12/05 04:39:04;;;;;;;0.00;0.00;;;;;;;5.32;84.41;97019.03;4984513;28;20032;-72
2020/12/05 04:41:29;;;;;;;0.95;0.05;;;;;;;5.31;84.49;97028.28;5006036;28;20371;-71
2020/12/05 04:43:55;;;;;;;0.10;0.00;;;;;;;5.30;84.29;97023.16;4967868;28;20086;-71
2020/12/05 04:46:21;;;;;;;0.00;0.00;;;;;;;5.24;84.28;97044.19;4957394;28;20465;-71
2020/12/05 04:48:48;;;;;;;0.15;0.00;;;;;;;5.12;84.21;97031.25;4898335;28;20038;-72
2020/12/05 04:51:19;;;;;;;0.00;0.00;;;;;;;5.01;84.32;97046.19;4924430;28;20036;-72
2020/12/05 04:53:47;;;;;;;0.40;0.00;;;;;;;4.88;84.30;97053.28;4913180;28;20032;-72
2020/12/05 04:56:15;;;;;;;0.00;0.00;;;;;;;4.74;84.56;97047.16;4957865;28;20036;-72
2020/12/05 04:58:47;;;;;;;0.10;0.00;;;;;;;4.67;84.51;97070.06;4912748;28;20114;-71
2020/12/05 05:01:16;;;;;;;0.10;0.00;;;;;;;4.49;84.82;97079.19;4915934;28;20023;-74
2020/12/05 05:03:42;;;;;;;2.78;0.20;;;;;;;4.28;84.33;97074.25;4940299;28;20109;-73
2020/12/05 05:06:20;;;;;;;1.55;0.00;;;;;;;4.11;85.21;97082.22;4915946;28;20024;-73
2020/12/05 05:08:46;;;;;;;0.40;0.10;;;;;;;4.04;85.42;97092.66;4932413;28;20055;-74
2020/12/05 05:11:14;;;;;;;0.98;0.00;;;;;;;3.90;86.11;97095.38;4932569;28;20770;-72
2020/12/05 05:13:49;;;;;;;0.80;0.80;;;;;;;3.70;85.05;97091.25;4931292;28;20768;-74
2020/12/05 05:16:15;;;;;;;0.05;0.00;;;;;;;3.54;86.03;97098.84;4967666;28;20487;-73
2020/12/05 05:18:43;;;;;;;0.20;0.00;;;;;;;3.48;86.90;97095.47;4901306;28;20040;-74
2020/12/05 05:21:08;;;;;;;0.10;0.05;;;;;;;3.54;86.96;97083.44;4947884;28;20031;-73
2020/12/05 05:23:38;;;;;;;0.00;0.00;;;;;;;3.61;87.48;97116.25;4897822;28;20620;-74
2020/12/05 05:26:06;;;;;;;0.00;0.00;;;;;;;3.64;86.63;97098.66;4937165;28;20035;-73
2020/12/05 05:28:33;;;;;;;0.00;0.00;;;;;;;3.66;86.63;97101.84;4942974;28;20412;-74
2020/12/05 05:31:30;;;;;;;0.00;0.00;;;;;;;3.66;86.80;97102.66;4927808;28;20078;-76
2020/12/05 05:33:55;;;;;;;0.08;0.00;;;;;;;3.69;87.16;97113.94;4913976;28;20039;-76
2020/12/05 05:36:29;;;;;;;0.22;0.10;;;;;;;3.70;87.35;97102.06;4886710;28;20466;-75
2020/12/05 05:39:12;;;;;;;0.00;0.00;;;;;;;3.69;86.88;97149.88;4915038;28;20039;-75
2020/12/05 05:41:46;;;;;;;0.25;0.10;;;;;;;3.69;87.53;97132.88;4914272;28;20032;-75
2020/12/05 05:44:17;;;;;;;2.80;0.00;;;;;;;3.63;86.94;97116.75;4925826;28;20038;-74
2020/12/05 05:46:46;;;;;;;0.00;0.00;;;;;;;3.65;86.93;97106.44;4973207;28;20128;-74
2020/12/05 05:49:13;;;;;;;0.85;0.08;;;;;;;3.71;87.39;97120.66;4980664;28;20138;-75
2020/12/05 05:51:42;;;;;;;0.00;0.00;;;;;;;3.72;86.68;97118.75;5000607;28;20120;-74
2020/12/05 05:54:15;;;;;;;0.00;0.00;;;;;;;3.79;87.40;97124.56;5020264;28;20032;-74
2020/12/05 05:56:57;;;;;;;1.17;0.22;;;;;;;3.78;86.74;97131.03;4974383;28;20133;-74
2020/12/05 05:59:24;;;;;;;0.10;0.05;;;;;;;3.78;86.45;97120.25;4996024;28;20037;-74
2020/12/05 06:01:52;;;;;;;1.35;0.00;;;;;;;3.79;87.60;97121.84;4993835;28;20018;-72
2020/12/05 06:04:31;;;;;;;0.20;0.20;;;;;;;3.76;87.18;97114.34;5008605;28;20036;-75
2020/12/05 06:06:59;;;;;;;2.50;0.20;;;;;;;3.75;86.89;97153.28;4985714;28;20037;-74
2020/12/05 06:09:44;;;;;;;1.98;0.10;;;;;;;3.78;87.07;97141.84;4992492;28;20033;-76
2020/12/05 06:12:26;;;;;;;0.40;0.10;;;;;;;3.76;87.53;97149.47;4993500;28;20026;-75
2020/12/05 06:14:53;;;;;;;1.77;0.10;;;;;;;3.76;87.51;97157.59;5001164;28;20035;-75
2020/12/05 06:17:20;;;;;;;3.92;0.10;;;;;;;3.75;86.87;97164.91;5000059;28;20027;-76
2020/12/05 06:19:48;;;;;;;2.63;0.10;;;;;;;3.73;87.08;97148.16;4969173;28;20023;-76
2020/12/05 06:22:45;;;;;;;0.00;0.00;;;;;;;3.80;87.85;97169.41;4997409;28;20031;-77
2020/12/05 06:25:14;;;;;;;7.38;0.00;;;;;;;3.77;87.57;97156.50;4989027;28;20037;-78
2020/12/05 06:28:06;;;;;;;0.00;0.00;;;;;;;3.89;87.09;97170.28;5005982;28;20028;-76
2020/12/05 06:30:32;;;;;;;0.20;0.00;;;;;;;3.85;87.21;97169.28;4997246;28;20044;-77
2020/12/05 06:32:58;;;;;;;0.98;0.20;;;;;;;3.90;87.91;97179.19;4992715;28;20108;-76
2020/12/05 06:35:23;;;;;;;4.47;0.30;;;;;;;3.90;87.41;97180.00;4988157;28;20038;-76
2020/12/05 06:37:54;;;;;;;2.20;0.13;;;;;;;3.94;87.07;97191.81;4999582;28;20022;-77
2020/12/05 06:40:42;;;;;;;0.52;0.20;;;;;;;3.94;87.50;97189.13;5024436;28;20029;-76
2020/12/05 06:43:13;;;;;;;0.20;0.10;;;;;;;4.00;87.55;97190.63;4989233;28;20089;-78
2020/12/05 06:45:39;;;;;;;0.47;0.20;;;;;;;4.03;87.02;97208.13;5014307;28;20037;-76
2020/12/05 06:48:07;;;;;;;0.43;0.10;;;;;;;4.09;86.88;97206.09;4966569;28;20036;-75
2020/12/05 06:50:33;;;;;;;0.80;0.10;;;;;;;4.14;87.65;97217.63;4939536;28;20031;-75
2020/12/05 06:52:59;;;;;;;1.02;0.10;;;;;;;4.10;86.92;97192.28;4951871;28;20037;-75
2020/12/05 06:55:32;;;;;;;0.20;0.00;;;;;;;4.17;87.49;97213.53;4928483;28;20566;-75
2020/12/05 06:58:05;;;;;;;5.88;0.38;;;;;;;4.12;87.52;97221.75;4948220;28;20021;-75
2020/12/05 07:00:36;;;;;;;0.20;0.00;;;;;;;4.11;87.15;97214.72;4909060;28;20025;-74
2020/12/05 07:03:06;;;;;;;1.42;0.10;;;;;;;4.09;87.24;97225.03;4950381;28;20120;-76
2020/12/05 07:05:37;;;;;;;1.00;0.10;;;;;;;4.08;87.06;97224.25;4924242;28;20043;-75
2020/12/05 07:08:25;;;;;;;1.02;0.10;;;;;;;4.07;86.95;97219.13;4936295;28;20032;-75
2020/12/05 07:10:54;;;;;;;2.00;0.20;;;;;;;4.02;86.88;97223.53;4908519;28;20038;-75
2020/12/05 07:13:36;;;;;;;0.20;0.10;;;;;;;3.99;86.83;97224.16;4966624;28;20057;-75
2020/12/05 07:16:28;;;;;;;1.70;0.22;;;;;;;4.02;87.04;97236.28;4972703;28;20031;-75
2020/12/05 07:18:58;;;;;;;0.88;0.10;;;;;;;4.04;87.25;97252.19;4963343;28;20155;-75
2020/12/05 07:21:26;;;;;;;0.40;0.30;;;;;;;3.97;86.88;97249.88;4938477;28;20024;-73
2020/12/05 07:23:53;;;;;;;0.08;0.08;;;;;;;3.99;87.17;97245.78;4925749;28;20044;-73
2020/12/05 07:26:18;;;;;;;1.25;0.10;;;;;;;4.02;86.69;97256.00;4917125;28;20024;-73
2020/12/05 07:28:50;;;;;;;5.00;0.43;;;;;;;4.04;86.85;97263.00;4949592;28;20036;-76
2020/12/05 07:31:16;;;;;;;0.10;0.10;;;;;;;4.05;87.60;97270.81;4931586;28;20015;-75
2020/12/05 07:33:43;;;;;;;0.30;0.15;;;;;;;4.05;87.14;97259.22;4965747;28;20040;-75
2020/12/05 07:36:10;;;;;;;4.38;0.10;;;;;;;4.08;87.61;97274.84;4925302;28;20055;-76
2020/12/05 07:38:39;;;;;;;0.75;0.13;;;;;;;4.10;87.59;97272.63;4915053;28;20034;-74
2020/12/05 07:41:12;;;;;;;0.52;0.20;;;;;;;4.15;87.08;97284.13;4945443;28;20026;-76
2020/12/05 07:43:57;;;;;;;0.65;0.10;;;;;;;4.14;87.44;97273.63;4917708;28;20035;-77
2020/12/05 07:46:23;;;;;;;0.43;0.10;;;;;;;4.24;87.13;97300.47;4937995;28;20053;-75
2020/12/05 07:48:48;;;;;;;0.20;0.00;;;;;;;4.22;87.56;97291.03;4936296;28;20120;-78
2020/12/05 07:51:16;;;;;;;0.10;0.10;;;;;;;4.32;87.39;97296.25;4947541;28;20032;-75
2020/12/05 07:53:43;;;;;;;0.40;0.20;;;;;;;4.34;87.48;97310.28;4926951;28;20524;-76
2020/12/05 07:56:14;;;;;;;2.03;0.17;;;;;;;4.35;86.86;97323.50;4933595;28;20036;-75
2020/12/05 07:58:51;;;;;;;0.20;0.20;;;;;;;4.34;87.28;97319.19;4922274;28;20027;-75
2020/12/05 08:01:28;;;;;;;0.75;0.20;;;;;;;4.37;87.00;97332.13;4946636;28;20525;-75
2020/12/05 08:03:59;;;;;;;0.98;0.25;;;;;;;4.36;86.83;97335.13;4927759;28;20038;-75
2020/12/05 08:06:40;;;;;;;1.63;0.30;;;;;;;4.34;87.14;97338.13;4930617;28;20496;-75
2020/12/05 08:09:06;;;;;;;0.10;0.00;;;;;;;4.34;86.82;97338.13;4906038;28;20031;-76
2020/12/05 08:11:47;;;;;;;4.47;0.20;;;;;;;4.37;87.13;97332.13;4920567;28;20032;-75
2020/12/05 08:14:13;;;;;;;0.30;0.00;;;;;;;4.33;87.05;97336.53;4964724;28;20025;-75
2020/12/05 08:16:39;;;;;;;3.38;0.28;;;;;;;4.46;87.55;97351.16;4950673;28;20095;-74
2020/12/05 08:19:06;;;;;;;0.77;0.17;;;;;;;4.51;86.91;97352.97;4934562;28;20043;-76
2020/12/05 08:21:31;;;;;;;0.28;0.10;;;;;;;4.62;87.11;97359.78;4933688;28;20055;-74
2020/12/05 08:24:07;;;;;;;0.20;0.10;;;;;;;4.75;86.96;97362.78;4923346;28;20036;-74
2020/12/05 08:26:33;;;;;;;0.10;0.08;;;;;;;4.82;87.29;97357.75;4903706;28;20040;-75
2020/12/05 08:29:00;;;;;;;4.15;0.20;;;;;;;4.94;87.37;97352.63;4901889;28;20028;-74
2020/12/05 08:31:26;;;;;;;0.10;0.10;;;;;;;5.01;87.00;97355.72;4914842;28;20024;-75
2020/12/05 08:33:51;;;;;;;0.00;0.00;;;;;;;5.09;86.73;97366.94;4880591;28;20035;-75
2020/12/05 08:36:27;;;;;;;0.10;0.10;;;;;;;5.19;86.71;97361.28;4924108;28;20036;-74
2020/12/05 08:38:55;;;;;;;0.15;0.05;;;;;;;5.24;86.84;97370.09;4922462;28;20032;-75
2020/12/05 08:41:21;;;;;;;0.45;0.20;;;;;;;5.31;86.38;97374.28;4925346;28;20038;-75
2020/12/05 08:43:46;;;;;;;0.10;0.10;;;;;;;5.38;86.58;97370.03;4924325;28;20042;-76
2020/12/05 08:46:22;;;;;;;0.10;0.10;;;;;;;5.49;86.49;97377.94;4948109;28;20375;-74
2020/12/05 08:48:51;;;;;;;2.00;0.13;;;;;;;5.57;86.37;97383.41;4933475;28;20495;-74
2020/12/05 08:51:25;;;;;;;1.33;0.32;;;;;;;5.64;86.36;97377.59;4930529;28;20043;-75
2020/12/05 08:53:50;;;;;;;3.42;0.40;;;;;;;5.73;86.09;97369.50;4929089;28;20030;-75
2020/12/05 08:56:22;;;;;;;0.65;0.40;;;;;;;5.85;86.78;97382.50;4942875;28;20024;-76
2020/12/05 08:58:48;;;;;;;0.85;0.55;;;;;;;5.94;86.39;97375.22;4923653;28;20035;-75
2020/12/05 09:01:14;;;;;;;1.20;0.50;;;;;;;6.02;86.71;97371.78;4915173;28;20032;-75
2020/12/05 09:03:41;;;;;;;2.88;0.57;;;;;;;6.13;86.66;97382.38;4940559;28;20043;-75
2020/12/05 09:06:28;;;;;;;1.08;0.50;;;;;;;6.16;86.66;97379.03;4929311;28;20026;-75
2020/12/05 09:08:54;;;;;;;1.25;0.50;;;;;;;6.27;86.39;97399.38;4947763;28;20080;-75
2020/12/05 09:11:22;;;;;;;0.73;0.43;;;;;;;6.28;86.30;97398.28;4945405;28;20047;-77
2020/12/05 09:13:50;;;;;;;1.00;0.32;;;;;;;6.28;85.80;97409.91;4949764;28;20034;-77
2020/12/05 09:16:16;;;;;;;1.30;0.40;;;;;;;6.33;85.94;97419.84;4949370;28;20071;-76
2020/12/05 09:18:47;;;;;;;0.35;0.20;;;;;;;6.34;85.53;97426.88;4955851;28;20071;-76
2020/12/05 09:21:20;;;;;;;4.72;0.50;;;;;;;6.36;85.23;97427.34;4959131;28;20762;-76
2020/12/05 09:24:05;;;;;;;3.95;0.45;;;;;;;6.38;86.12;97435.19;4914265;28;20034;-76
2020/12/05 09:26:34;;;;;;;1.02;0.50;;;;;;;6.40;86.10;97439.19;4943096;28;20031;-76
2020/12/05 09:29:02;;;;;;;2.35;1.05;;;;;;;6.41;86.05;97438.09;4939176;28;20024;-75
2020/12/05 09:31:28;;;;;;;1.50;0.50;;;;;;;6.43;85.30;97446.72;4929596;28;20024;-76
2020/12/05 09:33:56;;;;;;;2.08;0.35;;;;;;;6.39;85.30;97453.88;4958555;28;20031;-78
2020/12/05 09:36:21;;;;;;;5.03;0.95;;;;;;;6.35;85.21;97477.34;4919654;28;20032;-73
2020/12/05 09:38:47;;;;;;;0.50;0.40;;;;;;;6.20;85.00;97466.84;4933847;28;20388;-78
2020/12/05 09:41:12;;;;;;;0.40;0.20;;;;;;;6.19;84.85;97484.22;4941942;28;20092;-75
2020/12/05 09:43:38;;;;;;;2.70;0.57;;;;;;;6.16;85.02;97484.84;4943899;28;20031;-74
2020/12/05 09:46:03;;;;;;;3.13;0.57;;;;;;;6.09;85.28;97475.25;4938931;28;20058;-72
2020/12/05 09:48:29;;;;;;;4.82;0.63;;;;;;;6.05;85.47;97493.25;4928693;28;20034;-75
2020/12/05 09:50:54;;;;;;;0.80;0.30;;;;;;;6.06;85.67;97500.28;4956312;28;20031;-74
2020/12/05 09:53:20;;;;;;;0.88;0.32;;;;;;;6.09;85.73;97501.59;4947726;28;20404;-73
2020/12/05 09:55:45;;;;;;;0.95;0.38;;;;;;;6.10;85.89;97503.97;4964842;28;20117;-75
2020/12/05 09:58:10;;;;;;;2.50;0.30;;;;;;;6.16;85.71;97512.78;4922212;28;20028;-73
2020/12/05 10:00:36;;;;;;;0.85;0.30;;;;;;;6.21;85.58;97517.31;4951300;28;20519;-74
2020/12/05 10:03:01;;;;;;;1.63;0.40;;;;;;;6.22;85.02;97524.31;4934661;28;20032;-73
2020/12/05 10:05:27;;;;;;;0.63;0.40;;;;;;;6.18;84.90;97526.84;4955661;28;20120;-73
2020/12/05 10:07:52;;;;;;;1.67;0.20;;;;;;;6.15;85.63;97518.50;4934342;28;20481;-74
2020/12/05 10:10:18;;;;;;;0.65;0.40;;;;;;;6.23;85.70;97534.06;4977637;28;20033;-76
2020/12/05 10:12:46;;;;;;;0.60;0.30;;;;;;;6.26;85.00;97550.56;4931769;28;20028;-74
2020/12/05 10:15:15;;;;;;;1.63;0.70;;;;;;;6.28;85.08;97544.81;4962778;28;20026;-75
2020/12/05 10:17:42;;;;;;;2.25;0.60;;;;;;;6.29;85.09;97554.53;4963539;28;20062;-75
2020/12/05 10:20:08;;;;;;;3.08;0.70;;;;;;;6.33;85.17;97560.16;4945685;28;20540;-73
2020/12/05 10:22:34;;;;;;;2.53;0.70;;;;;;;6.33;84.63;97557.47;4941204;28;20027;-73
2020/12/05 10:25:00;;;;;;;1.73;0.85;;;;;;;6.33;85.46;97565.59;4948356;28;20032;-74
2020/12/05 10:27:26;;;;;;;2.72;0.30;;;;;;;6.36;85.59;97565.78;4921254;28;20039;-72
2020/12/05 10:29:54;;;;;;;1.20;0.55;;;;;;;6.40;84.92;97569.47;4944641;28;20052;-73
2020/12/05 10:32:20;;;;;;;6.75;0.57;;;;;;;6.46;85.26;97568.22;4927296;28;20484;-72
2020/12/05 10:34:45;;;;;;;0.77;0.60;;;;;;;6.49;85.34;97563.31;4927811;28;20074;-75
2020/12/05 10:37:11;;;;;;;2.45;0.63;;;;;;;6.64;84.91;97584.66;4954436;28;20129;-73
2020/12/05 10:39:36;;;;;;;0.40;0.40;;;;;;;6.67;84.52;97597.59;4939003;28;20032;-71
2020/12/05 10:42:02;;;;;;;1.00;0.47;;;;;;;6.70;84.96;97583.44;4921255;28;20034;-74
2020/12/05 10:44:27;;;;;;;0.63;0.40;;;;;;;6.76;85.08;97579.47;4927088;28;20078;-73
2020/12/05 10:46:52;;;;;;;0.80;0.45;;;;;;;6.89;84.81;97587.84;4912219;28;20062;-73
2020/12/05 10:49:20;;;;;;;2.58;0.30;;;;;;;7.06;85.00;97584.41;4922054;28;20063;-72
2020/12/05 10:51:48;;;;;;;1.40;0.30;;;;;;;7.18;85.32;97589.25;4943763;28;20079;-74
2020/12/05 10:54:14;;;;;;;1.05;0.30;;;;;;;7.27;84.64;97588.19;4917122;28;20036;-71
2020/12/05 10:56:41;;;;;;;1.05;0.30;;;;;;;7.33;84.97;97586.94;4940797;28;20054;-72
2020/12/05 10:59:07;;;;;;;0.30;0.30;;;;;;;7.42;84.99;97589.69;4919570;28;20675;-72
2020/12/05 11:01:33;;;;;;;0.40;0.35;;;;;;;7.51;85.19;97593.22;4933590;28;20044;-74
2020/12/05 11:03:58;;;;;;;1.60;0.22;;;;;;;7.62;84.59;97592.94;4946079;28;20059;-73
2020/12/05 11:06:26;;;;;;;2.05;0.73;;;;;;;7.68;84.84;97594.38;4949330;28;20488;-76
2020/12/05 11:08:53;;;;;;;1.02;0.52;;;;;;;7.73;84.33;97594.25;4948690;28;20046;-73
2020/12/05 11:11:18;;;;;;;3.63;0.30;;;;;;;7.89;84.36;97599.25;4950744;28;20118;-76
2020/12/05 11:13:44;;;;;;;2.08;0.30;;;;;;;8.01;84.42;97605.66;4949501;28;20054;-72
2020/12/05 11:16:10;;;;;;;5.60;0.45;;;;;;;8.17;84.37;97613.38;4931576;28;20032;-77
2020/12/05 11:18:35;;;;;;;0.30;0.20;;;;;;;8.30;83.38;97606.19;4948707;28;20054;-77
2020/12/05 11:21:01;;;;;;;2.75;0.40;;;;;;;8.46;83.42;97626.41;4938359;28;20023;-77
2020/12/05 11:23:26;;;;;;;0.95;0.35;;;;;;;8.59;83.11;97618.41;4940360;28;20034;-76
2020/12/05 11:25:52;;;;;;;2.17;0.30;;;;;;;8.69;83.15;97628.97;4935076;28;20373;-76
2020/12/05 11:28:17;;;;;;;1.85;0.47;;;;;;;8.79;83.48;97634.09;4955182;28;20053;-75
2020/12/05 11:30:43;;;;;;;0.88;0.82;;;;;;;8.85;83.07;97640.97;4941709;28;20028;-76
2020/12/05 11:33:08;;;;;;;3.20;0.63;;;;;;;8.91;82.96;97642.38;4926493;28;20032;-77
2020/12/05 11:35:35;;;;;;;1.70;0.40;;;;;;;9.06;82.65;97632.09;4956791;28;20046;-76
2020/12/05 11:38:00;;;;;;;0.40;0.30;;;;;;;9.21;83.11;97644.41;4933088;28;20084;-78
2020/12/05 11:40:26;;;;;;;1.58;0.52;;;;;;;9.28;82.59;97638.47;4936021;28;20122;-75
2020/12/05 11:43:10;;;;;;;;;;;;;;;;;;;;;
2020/12/05 11:45:36;;;;;;;0.35;0.25;;;;;;;9.43;83.06;97635.19;4946707;28;20111;-76
2020/12/05 11:49:16;;;;;;;1.45;0.38;;;;;;;9.25;82.16;97646.16;4962229;28;20051;-76
2020/12/05 11:55:06;;;;;;;8.27;0.70;;;;;;;8.42;81.54;97662.72;4874874;29;20065;-79